createdAt,value
2023-02-28T00:00:32.955Z,146108.13
2023-02-28T00:01:35.736Z,146108.13
2023-02-28T00:02:39.194Z,146137.06
2023-02-28T00:03:41.858Z,146139.47
2023-02-28T00:04:44.735Z,146150.28
2023-02-28T00:05:47.365Z,146137.06
2023-02-28T00:06:49.758Z,146129.78
2023-02-28T00:07:52.282Z,146124.97
2023-02-28T00:08:54.802Z,146118.97
2023-02-28T00:09:57.683Z,146111.75
2023-02-28T00:11:05.364Z,146122.56
2023-02-28T00:12:11.155Z,146093.66
2023-02-28T00:13:14.365Z,146085.22
2023-02-28T00:14:16.892Z,146081.63
2023-02-28T00:15:19.893Z,146084.03
2023-02-28T00:16:23.591Z,146092.44
2023-02-28T00:17:26.127Z,146079.22
2023-02-28T00:18:31.112Z,146093.66
2023-02-28T00:19:33.928Z,146084.03
2023-02-28T00:20:36.337Z,146084.03
2023-02-28T00:21:41.850Z,146076.81
2023-02-28T00:22:47.137Z,146087.63
2023-02-28T00:23:49.684Z,146087.63
2023-02-28T00:24:52.175Z,146096.06
2023-02-28T00:25:55.055Z,146114.16
2023-02-28T00:26:57.579Z,146093.66
2023-02-28T00:27:59.975Z,146088.84
2023-02-28T00:29:02.509Z,146081.63
2023-02-28T00:30:06.342Z,146082.81
2023-02-28T00:31:08.966Z,146085.22
2023-02-28T00:32:11.544Z,146084.03
2023-02-28T00:33:14.256Z,146099.66
2023-02-28T00:34:16.793Z,146097.25
2023-02-28T00:35:19.423Z,146096.06
2023-02-28T00:36:21.950Z,146087.63
2023-02-28T00:37:24.581Z,146082.81
2023-02-28T00:38:26.984Z,146076.81
2023-02-28T00:39:29.864Z,146074.41
2023-02-28T00:40:32.862Z,146069.53
2023-02-28T00:41:35.385Z,146065.94
2023-02-28T00:42:37.903Z,146062.34
2023-02-28T00:43:41.068Z,146062.34
2023-02-28T00:44:43.562Z,146061.13
2023-02-28T00:45:47.778Z,146091.25
2023-02-28T00:46:50.154Z,146103.31
2023-02-28T00:47:52.669Z,146110.53
2023-02-28T00:48:55.430Z,146105.72
2023-02-28T00:49:57.950Z,146096.06
2023-02-28T00:51:00.712Z,146092.44
2023-02-28T00:52:03.238Z,146086.44
2023-02-28T00:53:05.753Z,146082.81
2023-02-28T00:54:08.166Z,146074.41
2023-02-28T00:55:11.032Z,146074.41
2023-02-28T00:56:13.562Z,146069.53
2023-02-28T00:57:16.073Z,146065.94
2023-02-28T00:58:18.594Z,146059.94
2023-02-28T00:59:21.233Z,146055.13
2023-02-28T01:00:23.958Z,146055.13
2023-02-28T01:01:26.800Z,146055.13
2023-02-28T01:02:29.408Z,146057.53
2023-02-28T01:03:31.919Z,146057.53
2023-02-28T01:04:34.603Z,146052.72
2023-02-28T01:05:37.443Z,146049.09
2023-02-28T01:06:40.082Z,146047.91
2023-02-28T01:07:42.484Z,146045.50
2023-02-28T01:08:45.122Z,146040.69
2023-02-28T01:09:47.640Z,146039.47
2023-02-28T01:10:50.521Z,146041.88
2023-02-28T01:11:53.047Z,146040.69
2023-02-28T01:12:55.565Z,146038.28
2023-02-28T01:13:58.443Z,146040.69
2023-02-28T01:15:00.870Z,146037.03
2023-02-28T01:16:03.509Z,146040.69
2023-02-28T01:17:06.726Z,146049.09
2023-02-28T01:18:09.255Z,146039.47
2023-02-28T01:19:12.249Z,146063.53
2023-02-28T01:20:15.019Z,146072.00
2023-02-28T01:21:19.334Z,146074.41
2023-02-28T01:22:21.853Z,146059.94
2023-02-28T01:23:25.472Z,146064.72
2023-02-28T01:24:27.978Z,146050.31
2023-02-28T01:25:30.862Z,146049.09
2023-02-28T01:26:33.390Z,146046.69
2023-02-28T01:27:36.858Z,146043.09
2023-02-28T01:28:39.373Z,146038.28
2023-02-28T01:29:42.020Z,146035.81
2023-02-28T01:30:50.026Z,146056.31
2023-02-28T01:31:52.908Z,146038.28
2023-02-28T01:32:56.177Z,146037.03
2023-02-28T01:33:58.703Z,146037.03
2023-02-28T01:35:04.700Z,146034.63
2023-02-28T01:36:19.099Z,146043.09
2023-02-28T01:37:21.500Z,146026.19
2023-02-28T01:38:24.047Z,146022.59
2023-02-28T01:39:27.397Z,146028.59
2023-02-28T01:40:30.042Z,146016.59
2023-02-28T01:41:34.702Z,146031.00
2023-02-28T01:42:37.222Z,146018.97
2023-02-28T01:43:45.511Z,146034.63
2023-02-28T01:45:26.912Z,146029.81
2023-02-28T01:46:29.333Z,146014.19
2023-02-28T01:47:37.348Z,146032.22
2023-02-28T01:48:48.263Z,146028.59
2023-02-28T01:49:52.649Z,146033.41
2023-02-28T01:51:02.425Z,146026.19
2023-02-28T01:52:05.074Z,146011.78
2023-02-28T01:53:11.682Z,146026.19
2023-02-28T01:54:19.232Z,146028.59
2023-02-28T01:55:24.386Z,146026.19
2023-02-28T01:56:31.239Z,146035.81
2023-02-28T01:57:38.911Z,146033.41
2023-02-28T01:58:41.551Z,146033.41
2023-02-28T01:59:53.577Z,146050.31
2023-02-28T02:00:56.071Z,146032.22
2023-02-28T02:01:58.623Z,146033.41
2023-02-28T02:03:09.991Z,146052.72
2023-02-28T02:04:12.633Z,146029.81
2023-02-28T02:05:20.685Z,146046.69
2023-02-28T02:06:41.552Z,146047.91
2023-02-28T02:07:49.840Z,146045.50
2023-02-28T02:08:53.552Z,146029.81
2023-02-28T02:10:25.837Z,146040.69
2023-02-28T02:11:30.908Z,146025.00
2023-02-28T02:12:57.159Z,146050.31
2023-02-28T02:14:30.766Z,146038.28
2023-02-28T02:15:57.783Z,146041.88
2023-02-28T02:17:14.319Z,146023.78
2023-02-28T02:18:47.682Z,146026.19
2023-02-28T02:20:37.011Z,146021.38
2023-02-28T02:22:03.530Z,146023.78
2023-02-28T02:23:33.431Z,146018.97
2023-02-28T02:24:48.645Z,146016.59
2023-02-28T02:25:59.692Z,146050.31
2023-02-28T02:27:13.967Z,146047.91
2023-02-28T02:28:41.212Z,146050.31
2023-02-28T02:30:14.455Z,146043.09
2023-02-28T02:31:41.603Z,146033.41
2023-02-28T02:32:56.210Z,146032.22
2023-02-28T02:34:20.454Z,146023.78
2023-02-28T02:35:30.815Z,146014.19
2023-02-28T02:36:55.133Z,146033.41
2023-02-28T02:38:38.575Z,146041.88
2023-02-28T02:40:03.664Z,146016.59
2023-02-28T02:41:24.058Z,146008.16
2023-02-28T02:42:44.823Z,145996.09
2023-02-28T02:43:47.218Z,145969.59
2023-02-28T02:44:57.055Z,145980.44
2023-02-28T02:46:20.749Z,145976.84
2023-02-28T02:47:26.590Z,145970.78
2023-02-28T02:48:33.421Z,145969.59
2023-02-28T02:49:39.308Z,145965.97
2023-02-28T02:50:47.824Z,145962.38
2023-02-28T02:51:53.100Z,145949.16
2023-02-28T02:53:01.505Z,145959.97
2023-02-28T02:54:09.086Z,145945.53
2023-02-28T02:55:14.231Z,145965.97
2023-02-28T02:56:20.769Z,145978.03
2023-02-28T02:57:36.443Z,145982.84
2023-02-28T02:58:43.334Z,145976.84
2023-02-28T02:59:46.176Z,145958.75
2023-02-28T03:00:54.233Z,145968.38
2023-02-28T03:02:02.111Z,145965.97
2023-02-28T03:03:07.994Z,145958.75
2023-02-28T03:04:17.714Z,145965.97
2023-02-28T03:05:46.032Z,145978.03
2023-02-28T03:06:49.036Z,145957.56
2023-02-28T03:07:51.437Z,145968.38
2023-02-28T03:08:54.678Z,145970.78
2023-02-28T03:09:59.236Z,145968.38
2023-02-28T03:11:04.408Z,145974.44
2023-02-28T03:12:14.126Z,145982.84
2023-02-28T03:13:25.903Z,145981.66
2023-02-28T03:14:42.689Z,145975.66
2023-02-28T03:16:12.589Z,145979.25
2023-02-28T03:17:49.061Z,145973.25
2023-02-28T03:19:12.931Z,145968.38
2023-02-28T03:20:33.684Z,145961.16
2023-02-28T03:21:50.127Z,145955.16
2023-02-28T03:23:14.373Z,145949.16
2023-02-28T03:24:31.406Z,145951.56
2023-02-28T03:25:48.572Z,145951.56
2023-02-28T03:27:24.571Z,145962.38
2023-02-28T03:28:43.068Z,145968.38
2023-02-28T03:30:07.416Z,145956.34
2023-02-28T03:31:30.357Z,145950.34
2023-02-28T03:33:06.574Z,145951.56
2023-02-28T03:34:25.667Z,145949.16
2023-02-28T03:35:40.113Z,145943.13
2023-02-28T03:36:49.018Z,145943.13
2023-02-28T03:37:55.301Z,145939.47
2023-02-28T03:39:06.590Z,145927.44
2023-02-28T03:40:14.384Z,145941.94
2023-02-28T03:41:24.709Z,145945.53
2023-02-28T03:42:30.706Z,145949.16
2023-02-28T03:43:38.999Z,145947.94
2023-02-28T03:44:49.906Z,145951.56
2023-02-28T03:45:53.779Z,145937.06
2023-02-28T03:47:03.952Z,145951.56
2023-02-28T03:48:32.892Z,145950.34
2023-02-28T03:49:44.634Z,145947.94
2023-02-28T03:50:50.407Z,145947.94
2023-02-28T03:51:55.313Z,145946.75
2023-02-28T03:53:08.199Z,145952.75
2023-02-28T03:54:17.150Z,145956.34
2023-02-28T03:55:20.872Z,145943.13
2023-02-28T03:56:32.036Z,145956.34
2023-02-28T03:57:52.327Z,145952.75
2023-02-28T03:58:54.726Z,145934.66
2023-02-28T04:00:32.899Z,145951.56
2023-02-28T04:01:40.234Z,145951.56
2023-02-28T04:02:43.324Z,145937.06
2023-02-28T04:03:46.315Z,145937.06
2023-02-28T04:04:50.676Z,145934.66
2023-02-28T04:05:56.398Z,145940.72
2023-02-28T04:07:12.977Z,145940.72
2023-02-28T04:08:15.480Z,145919.03
2023-02-28T04:09:18.360Z,145926.25
2023-02-28T04:10:21.242Z,145929.84
2023-02-28T04:11:43.460Z,145917.84
2023-02-28T04:12:45.964Z,145919.03
2023-02-28T04:13:49.450Z,145920.25
2023-02-28T04:14:52.087Z,145913.03
2023-02-28T04:15:54.659Z,145911.81
2023-02-28T04:16:57.246Z,145903.38
2023-02-28T04:17:59.773Z,145902.16
2023-02-28T04:19:06.867Z,145910.63
2023-02-28T04:20:10.824Z,145914.22
2023-02-28T04:21:13.716Z,145917.84
2023-02-28T04:22:18.260Z,145911.81
2023-02-28T04:23:20.769Z,145913.03
2023-02-28T04:24:27.733Z,145929.84
2023-02-28T04:25:30.132Z,145913.03
2023-02-28T04:26:37.335Z,145920.25
2023-02-28T04:27:39.733Z,145910.63
2023-02-28T04:28:42.253Z,145913.03
2023-02-28T04:29:45.653Z,145910.63
2023-02-28T04:30:48.375Z,145908.22
2023-02-28T04:31:51.112Z,145908.22
2023-02-28T04:32:53.782Z,145917.84
2023-02-28T04:33:56.444Z,145920.25
2023-02-28T04:34:58.937Z,145917.84
2023-02-28T04:36:08.426Z,145951.56
2023-02-28T04:37:13.797Z,145929.84
2023-02-28T04:38:16.581Z,145934.66
2023-02-28T04:39:19.581Z,145938.28
2023-02-28T04:40:21.987Z,145934.66
2023-02-28T04:41:24.859Z,145968.38
2023-02-28T04:42:27.748Z,145951.56
2023-02-28T04:43:31.474Z,145970.78
2023-02-28T04:44:34.139Z,145975.66
2023-02-28T04:45:36.667Z,145972.00
2023-02-28T04:46:39.277Z,145990.06
2023-02-28T04:47:41.802Z,145994.88
2023-02-28T04:48:45.388Z,145991.28
2023-02-28T04:49:47.906Z,145990.06
2023-02-28T04:50:50.424Z,145978.03
2023-02-28T04:51:53.950Z,145973.25
2023-02-28T04:52:57.508Z,145982.84
2023-02-28T04:54:00.029Z,145982.84
2023-02-28T04:55:02.794Z,145976.84
2023-02-28T04:56:05.670Z,145973.25
2023-02-28T04:57:08.188Z,145982.84
2023-02-28T04:58:10.952Z,145975.66
2023-02-28T04:59:13.354Z,145990.06
2023-02-28T05:00:17.798Z,145981.66
2023-02-28T05:01:30.735Z,145999.69
2023-02-28T05:02:36.484Z,145990.06
2023-02-28T05:03:41.675Z,145963.56
2023-02-28T05:04:44.328Z,145967.19
2023-02-28T05:05:46.835Z,145978.03
2023-02-28T05:06:49.352Z,145973.25
2023-02-28T05:07:51.879Z,145968.38
2023-02-28T05:08:54.395Z,145970.78
2023-02-28T05:09:57.046Z,145956.34
2023-02-28T05:11:01.718Z,145958.75
2023-02-28T05:12:04.380Z,145958.75
2023-02-28T05:13:06.809Z,145953.94
2023-02-28T05:14:14.201Z,145990.06
2023-02-28T05:15:18.041Z,145975.66
2023-02-28T05:16:21.368Z,145987.66
2023-02-28T05:17:23.812Z,145973.25
2023-02-28T05:18:26.322Z,145961.16
2023-02-28T05:19:29.206Z,145961.16
2023-02-28T05:20:31.726Z,145947.94
2023-02-28T05:21:39.286Z,145965.97
2023-02-28T05:22:42.776Z,145950.34
2023-02-28T05:23:46.830Z,145937.06
2023-02-28T05:24:50.446Z,145929.84
2023-02-28T05:25:53.929Z,145915.44
2023-02-28T05:26:56.686Z,145922.66
2023-02-28T05:27:59.211Z,145903.38
2023-02-28T05:29:01.731Z,145898.56
2023-02-28T05:30:05.458Z,145891.34
2023-02-28T05:31:11.963Z,145888.94
2023-02-28T05:32:14.481Z,145868.44
2023-02-28T05:33:16.980Z,145869.66
2023-02-28T05:34:19.518Z,145861.25
2023-02-28T05:35:22.019Z,145849.22
2023-02-28T05:36:24.898Z,145848.00
2023-02-28T05:37:27.414Z,145844.41
2023-02-28T05:38:29.933Z,145840.75
2023-02-28T05:39:32.455Z,145826.34
2023-02-28T05:40:34.976Z,145807.06
2023-02-28T05:41:37.493Z,145804.66
2023-02-28T05:42:40.134Z,145811.91
2023-02-28T05:43:42.787Z,145802.25
2023-02-28T05:44:45.295Z,145802.25
2023-02-28T05:45:47.725Z,145823.94
2023-02-28T05:46:50.252Z,145814.31
2023-02-28T05:47:56.706Z,145828.75
2023-02-28T05:49:01.276Z,145795.03
2023-02-28T05:50:05.239Z,145797.44
2023-02-28T05:51:09.072Z,145775.75
2023-02-28T05:52:11.823Z,145768.56
2023-02-28T05:53:14.348Z,145775.75
2023-02-28T05:54:16.746Z,145768.56
2023-02-28T05:55:19.511Z,145770.97
2023-02-28T05:56:21.915Z,145767.34
2023-02-28T05:57:25.053Z,145787.81
2023-02-28T05:58:31.815Z,145770.97
2023-02-28T05:59:34.513Z,145751.72
2023-02-28T06:00:37.152Z,145745.72
2023-02-28T06:01:40.757Z,145736.06
2023-02-28T06:02:43.285Z,145751.72
2023-02-28T06:03:45.749Z,145776.97
2023-02-28T06:04:48.197Z,145772.16
2023-02-28T06:05:51.557Z,145766.16
2023-02-28T06:06:54.323Z,145783.03
2023-02-28T06:07:56.730Z,145772.16
2023-02-28T06:08:59.356Z,145769.75
2023-02-28T06:10:01.882Z,145761.34
2023-02-28T06:11:05.244Z,145764.94
2023-02-28T06:12:10.400Z,145761.34
2023-02-28T06:13:13.941Z,145761.34
2023-02-28T06:14:19.283Z,145801.03
2023-02-28T06:15:22.068Z,145784.22
2023-02-28T06:16:25.492Z,145789.03
2023-02-28T06:17:28.048Z,145781.81
2023-02-28T06:18:30.334Z,145793.84
2023-02-28T06:19:33.089Z,145792.63
2023-02-28T06:20:37.365Z,145797.44
2023-02-28T06:21:39.926Z,145791.44
2023-02-28T06:22:42.459Z,145786.63
2023-02-28T06:23:45.095Z,145790.22
2023-02-28T06:24:47.730Z,145781.81
2023-02-28T06:25:50.730Z,145780.63
2023-02-28T06:26:53.266Z,145791.44
2023-02-28T06:27:56.513Z,145792.63
2023-02-28T06:28:59.137Z,145797.44
2023-02-28T06:30:01.657Z,145805.84
2023-02-28T06:31:12.349Z,145831.16
2023-02-28T06:32:14.911Z,145803.44
2023-02-28T06:33:17.499Z,145819.13
2023-02-28T06:34:19.908Z,145814.31
2023-02-28T06:35:22.602Z,145816.72
2023-02-28T06:36:25.302Z,145823.94
2023-02-28T06:37:27.946Z,145833.53
2023-02-28T06:38:30.938Z,145831.16
2023-02-28T06:39:33.583Z,145832.34
2023-02-28T06:40:36.824Z,145833.53
2023-02-28T06:41:53.651Z,145838.34
2023-02-28T06:42:57.467Z,145838.34
2023-02-28T06:44:00.261Z,145852.81
2023-02-28T06:45:05.654Z,145848.00
2023-02-28T06:46:10.032Z,145856.44
2023-02-28T06:47:13.186Z,145867.25
2023-02-28T06:48:15.991Z,145867.25
2023-02-28T06:49:18.837Z,145875.72
2023-02-28T06:50:21.600Z,145882.94
2023-02-28T06:51:25.464Z,145884.13
2023-02-28T06:52:28.190Z,145891.34
2023-02-28T06:53:30.713Z,145904.56
2023-02-28T06:54:33.110Z,145915.44
2023-02-28T06:55:35.513Z,145927.44
2023-02-28T06:56:38.274Z,145925.03
2023-02-28T06:57:40.919Z,145940.72
2023-02-28T06:58:46.700Z,145951.56
2023-02-28T06:59:50.517Z,145970.78
2023-02-28T07:00:53.775Z,145988.88
2023-02-28T07:01:56.433Z,145972.00
2023-02-28T07:02:58.800Z,145968.38
2023-02-28T07:04:01.684Z,145978.03
2023-02-28T07:05:07.439Z,145969.59
2023-02-28T07:06:09.961Z,145972.00
2023-02-28T07:07:12.596Z,145982.84
2023-02-28T07:08:15.000Z,145998.50
2023-02-28T07:09:17.515Z,146002.09
2023-02-28T07:10:20.593Z,145994.88
2023-02-28T07:11:26.840Z,146009.38
2023-02-28T07:12:29.294Z,146025.00
2023-02-28T07:13:31.806Z,146043.09
2023-02-28T07:14:34.920Z,146035.81
2023-02-28T07:15:41.190Z,146006.97
2023-02-28T07:16:46.633Z,145997.28
2023-02-28T07:17:49.203Z,146050.31
2023-02-28T07:18:54.140Z,146045.50
2023-02-28T07:19:56.651Z,146052.72
2023-02-28T07:20:59.407Z,146052.72
2023-02-28T07:22:03.868Z,146050.31
2023-02-28T07:23:06.366Z,146059.94
2023-02-28T07:24:09.366Z,146091.25
2023-02-28T07:25:11.766Z,146093.66
2023-02-28T07:26:16.685Z,146116.56
2023-02-28T07:27:26.761Z,146122.56
2023-02-28T07:28:29.286Z,146179.22
2023-02-28T07:29:31.814Z,146250.31
2023-02-28T07:30:34.336Z,146320.22
2023-02-28T07:31:36.904Z,146388.94
2023-02-28T07:32:39.255Z,146455.28
2023-02-28T07:33:42.029Z,146571.13
2023-02-28T07:34:44.531Z,146749.72
2023-02-28T07:35:47.070Z,146856.00
2023-02-28T07:36:49.813Z,147032.34
2023-02-28T07:37:52.581Z,147184.66
2023-02-28T07:38:55.138Z,147373.28
2023-02-28T07:39:57.623Z,147557.19
2023-02-28T07:41:00.138Z,147569.31
2023-02-28T07:42:07.344Z,147620.13
2023-02-28T07:43:09.861Z,147832.00
2023-02-28T07:44:13.233Z,147931.38
2023-02-28T07:45:15.748Z,148010.09
2023-02-28T07:46:19.515Z,148214.91
2023-02-28T07:47:24.465Z,148085.22
2023-02-28T07:48:27.768Z,148069.47
2023-02-28T07:49:30.271Z,148150.66
2023-02-28T07:50:32.914Z,148245.22
2023-02-28T07:51:35.450Z,148151.88
2023-02-28T07:52:39.156Z,148225.84
2023-02-28T07:53:41.675Z,148310.75
2023-02-28T07:54:44.192Z,148546.06
2023-02-28T07:55:46.712Z,148614.13
2023-02-28T07:56:49.246Z,148691.78
2023-02-28T07:57:51.809Z,148669.91
2023-02-28T07:58:54.283Z,148593.47
2023-02-28T07:59:56.921Z,148609.22
2023-02-28T08:01:07.008Z,148799.81
2023-02-28T08:02:17.681Z,148677.19
2023-02-28T08:03:21.640Z,148750.06
2023-02-28T08:04:24.164Z,148754.91
2023-02-28T08:05:26.693Z,148856.94
2023-02-28T08:06:29.084Z,148922.53
2023-02-28T08:07:31.604Z,148616.53
2023-02-28T08:08:34.386Z,148605.59
2023-02-28T08:09:36.887Z,148635.94
2023-02-28T08:10:39.525Z,148567.97
2023-02-28T08:11:42.047Z,148638.34
2023-02-28T08:12:44.570Z,148592.25
2023-02-28T08:13:47.094Z,148705.13
2023-02-28T08:14:49.727Z,148575.25
2023-02-28T08:15:52.169Z,148591.03
2023-02-28T08:16:55.492Z,148654.16
2023-02-28T08:17:58.133Z,148656.59
2023-02-28T08:19:00.671Z,148684.50
2023-02-28T08:20:03.176Z,148701.47
2023-02-28T08:21:09.651Z,148697.84
2023-02-28T08:22:12.171Z,148682.06
2023-02-28T08:23:14.696Z,148593.47
2023-02-28T08:24:17.214Z,148626.22
2023-02-28T08:25:19.853Z,148677.19
2023-02-28T08:26:22.389Z,148718.50
2023-02-28T08:27:24.800Z,148540.00
2023-02-28T08:28:27.696Z,148536.38
2023-02-28T08:29:31.275Z,148791.31
2023-02-28T08:30:33.897Z,148553.38
2023-02-28T08:31:36.656Z,148657.78
2023-02-28T08:32:39.661Z,148726.97
2023-02-28T08:33:42.664Z,148769.47
2023-02-28T08:34:46.984Z,148865.44
2023-02-28T08:35:54.711Z,148866.66
2023-02-28T08:36:57.181Z,149008.78
2023-02-28T08:37:59.700Z,148994.19
2023-02-28T08:39:02.461Z,149090.19
2023-02-28T08:40:05.475Z,149148.56
2023-02-28T08:41:11.717Z,149199.59
2023-02-28T08:42:14.230Z,149330.88
2023-02-28T08:43:16.751Z,149411.22
2023-02-28T08:44:19.151Z,149394.19
2023-02-28T08:45:21.667Z,149170.47
2023-02-28T08:46:24.939Z,149455.00
2023-02-28T08:47:27.667Z,149576.69
2023-02-28T08:48:32.955Z,149659.41
2023-02-28T08:49:35.614Z,149515.81
2023-02-28T08:50:38.109Z,149518.25
2023-02-28T08:51:40.509Z,149581.56
2023-02-28T08:52:46.099Z,149649.69
2023-02-28T08:53:50.533Z,149722.72
2023-02-28T08:54:53.012Z,149644.84
2023-02-28T08:56:05.961Z,149711.78
2023-02-28T08:57:08.468Z,149506.09
2023-02-28T08:58:10.999Z,149564.56
2023-02-28T08:59:13.510Z,149498.81
2023-02-28T09:00:16.164Z,149764.13
2023-02-28T09:01:21.598Z,149775.06
2023-02-28T09:02:24.071Z,149795.81
2023-02-28T09:03:28.174Z,149799.47
2023-02-28T09:04:32.157Z,149535.31
2023-02-28T09:05:34.655Z,149396.59
2023-02-28T09:06:37.281Z,149771.41
2023-02-28T09:07:39.797Z,149834.78
2023-02-28T09:08:42.557Z,149870.06
2023-02-28T09:09:54.978Z,149912.69
2023-02-28T09:10:59.760Z,149918.75
2023-02-28T09:12:03.242Z,149924.88
2023-02-28T09:13:07.398Z,150027.22
2023-02-28T09:14:09.932Z,149915.09
2023-02-28T09:15:12.443Z,149900.53
2023-02-28T09:16:20.273Z,149881.03
2023-02-28T09:17:22.758Z,150300.19
2023-02-28T09:18:25.283Z,150131.97
2023-02-28T09:19:27.802Z,150019.88
2023-02-28T09:20:30.324Z,149773.84
2023-02-28T09:21:32.921Z,149584.00
2023-02-28T09:22:35.382Z,149642.41
2023-02-28T09:23:39.329Z,149638.75
2023-02-28T09:24:41.855Z,149700.84
2023-02-28T09:25:52.886Z,149658.22
2023-02-28T09:27:04.568Z,149885.88
2023-02-28T09:28:07.892Z,149871.28
2023-02-28T09:29:11.133Z,149760.47
2023-02-28T09:30:14.502Z,150022.38
2023-02-28T09:31:23.253Z,150227.06
2023-02-28T09:32:25.826Z,150200.25
2023-02-28T09:33:28.441Z,150247.75
2023-02-28T09:34:33.695Z,150413.56
2023-02-28T09:35:38.139Z,150541.63
2023-02-28T09:36:46.002Z,150541.63
2023-02-28T09:37:55.418Z,150396.53
2023-02-28T09:38:58.327Z,150478.19
2023-02-28T09:40:00.816Z,150397.75
2023-02-28T09:41:12.722Z,150495.28
2023-02-28T09:42:32.379Z,150422.16
2023-02-28T09:43:39.585Z,150441.63
2023-02-28T09:44:46.200Z,150210.00
2023-02-28T09:46:03.377Z,150052.78
2023-02-28T09:47:16.305Z,150178.25
2023-02-28T09:48:26.385Z,150236.81
2023-02-28T09:49:41.387Z,150386.78
2023-02-28T09:50:49.667Z,150329.44
2023-02-28T09:51:59.996Z,150181.91
2023-02-28T09:53:13.066Z,150295.31
2023-02-28T09:54:21.836Z,150307.50
2023-02-28T09:55:52.564Z,150480.63
2023-02-28T09:57:00.952Z,150263.63
2023-02-28T09:58:03.616Z,150022.38
2023-02-28T09:59:28.074Z,150462.38
2023-02-28T10:00:37.555Z,150634.34
2023-02-28T10:01:44.253Z,150322.13
2023-02-28T10:02:50.179Z,150341.63
2023-02-28T10:03:59.996Z,150424.59
2023-02-28T10:05:15.836Z,150207.56
2023-02-28T10:06:20.884Z,150403.84
2023-02-28T10:07:35.282Z,150319.72
2023-02-28T10:09:02.560Z,150407.50
2023-02-28T10:10:16.344Z,150394.09
2023-02-28T10:11:21.845Z,150553.84
2023-02-28T10:12:27.122Z,150685.63
2023-02-28T10:13:59.041Z,150633.16
2023-02-28T10:15:03.490Z,150617.31
2023-02-28T10:16:28.952Z,150217.28
2023-02-28T10:17:54.911Z,150189.31
2023-02-28T10:19:27.127Z,150032.09
2023-02-28T10:20:32.526Z,150054.00
2023-02-28T10:21:47.414Z,150221.00
2023-02-28T10:23:11.052Z,150419.72
2023-02-28T10:24:26.891Z,150383.16
2023-02-28T10:25:30.729Z,150661.19
2023-02-28T10:26:34.342Z,150548.97
2023-02-28T10:27:36.858Z,150836.94
2023-02-28T10:28:41.202Z,151183.75
2023-02-28T10:29:52.335Z,151154.44
2023-02-28T10:30:56.017Z,151323.03
2023-02-28T10:32:02.306Z,151059.13
2023-02-28T10:33:04.877Z,150739.25
2023-02-28T10:34:08.538Z,150325.78
2023-02-28T10:35:11.177Z,149937.03
2023-02-28T10:36:19.980Z,149894.44
2023-02-28T10:37:22.818Z,149608.34
2023-02-28T10:38:28.839Z,149525.53
2023-02-28T10:39:40.479Z,149501.25
2023-02-28T10:40:42.985Z,149627.81
2023-02-28T10:41:45.622Z,149771.41
2023-02-28T10:43:03.042Z,149821.34
2023-02-28T10:44:16.835Z,150018.66
2023-02-28T10:45:19.346Z,150280.66
2023-02-28T10:46:27.994Z,150259.97
2023-02-28T10:47:31.233Z,150339.19
2023-02-28T10:49:04.469Z,150397.75
2023-02-28T10:50:07.227Z,150335.53
2023-02-28T10:51:12.774Z,150692.91
2023-02-28T10:52:33.630Z,150834.50
2023-02-28T10:53:57.528Z,150908.97
2023-02-28T10:55:26.320Z,150714.91
2023-02-28T10:56:30.142Z,150786.91
2023-02-28T10:57:33.631Z,151034.72
2023-02-28T10:58:54.037Z,151009.09
2023-02-28T11:00:20.192Z,151007.91
2023-02-28T11:01:31.875Z,151139.81
2023-02-28T11:02:39.417Z,150995.66
2023-02-28T11:03:42.032Z,151002.97
2023-02-28T11:04:44.468Z,151088.50
2023-02-28T11:05:48.035Z,151115.38
2023-02-28T11:07:01.843Z,150653.91
2023-02-28T11:08:13.854Z,150475.75
2023-02-28T11:09:25.434Z,150468.47
2023-02-28T11:10:31.839Z,150667.28
2023-02-28T11:11:45.421Z,150846.72
2023-02-28T11:12:52.928Z,150856.47
2023-02-28T11:14:05.327Z,150902.84
2023-02-28T11:15:19.026Z,151020.09
2023-02-28T11:16:22.269Z,151156.88
2023-02-28T11:17:31.001Z,151046.94
2023-02-28T11:18:39.168Z,151012.78
2023-02-28T11:19:47.922Z,150855.25
2023-02-28T11:20:55.972Z,150714.91
2023-02-28T11:22:01.411Z,150302.63
2023-02-28T11:23:06.171Z,150319.72
2023-02-28T11:24:24.166Z,150350.19
2023-02-28T11:25:39.299Z,150427.03
2023-02-28T11:26:49.376Z,150434.31
2023-02-28T11:27:58.967Z,150708.75
2023-02-28T11:29:13.139Z,150703.88
2023-02-28T11:30:32.684Z,150627.06
2023-02-28T11:31:35.265Z,150702.66
2023-02-28T11:32:38.527Z,150937.06
2023-02-28T11:33:52.487Z,151098.25
2023-02-28T11:35:11.213Z,150889.44
2023-02-28T11:36:29.221Z,151051.81
2023-02-28T11:37:33.670Z,151033.50
2023-02-28T11:38:37.378Z,151159.31
2023-02-28T11:39:40.017Z,151142.25
2023-02-28T11:40:57.174Z,150851.59
2023-02-28T11:42:36.894Z,150849.16
2023-02-28T11:43:42.184Z,150646.59
2023-02-28T11:45:19.018Z,150686.84
2023-02-28T11:46:47.840Z,150634.34
2023-02-28T11:48:17.218Z,150719.78
2023-02-28T11:49:47.219Z,150938.28
2023-02-28T11:51:16.656Z,150992.00
2023-02-28T11:52:38.467Z,150502.59
2023-02-28T11:53:52.270Z,150509.91
2023-02-28T11:55:00.666Z,150429.44
2023-02-28T11:56:40.505Z,149968.72
2023-02-28T11:58:06.906Z,149917.53
2023-02-28T11:59:45.918Z,149881.03
2023-02-28T12:01:25.997Z,149995.56
2023-02-28T12:02:38.153Z,149772.63
2023-02-28T12:03:56.361Z,150117.34
2023-02-28T12:05:16.399Z,150241.69
2023-02-28T12:06:40.285Z,150434.31
2023-02-28T12:07:51.080Z,150490.41
2023-02-28T12:08:53.359Z,150458.72
2023-02-28T12:10:20.388Z,150695.38
2023-02-28T12:11:49.302Z,150502.59
2023-02-28T12:13:05.968Z,150721.00
2023-02-28T12:14:29.745Z,150849.16
2023-02-28T12:15:41.009Z,150771.03
2023-02-28T12:16:49.899Z,150934.63
2023-02-28T12:18:13.893Z,151066.47
2023-02-28T12:19:29.250Z,151139.81
2023-02-28T12:20:34.546Z,151354.81
2023-02-28T12:21:42.694Z,151327.91
2023-02-28T12:23:02.059Z,151265.59
2023-02-28T12:24:38.141Z,151238.72
2023-02-28T12:25:55.061Z,151066.47
2023-02-28T12:27:01.899Z,151222.81
2023-02-28T12:28:05.256Z,151203.25
2023-02-28T12:29:16.417Z,151323.03
2023-02-28T12:30:36.588Z,151430.59
2023-02-28T12:31:50.530Z,151539.38
2023-02-28T12:33:16.778Z,151572.44
2023-02-28T12:34:24.584Z,151467.25
2023-02-28T12:35:37.815Z,151481.94
2023-02-28T12:36:45.355Z,151494.13
2023-02-28T12:37:58.421Z,151704.47
2023-02-28T12:39:19.663Z,151667.78
2023-02-28T12:40:43.180Z,151722.81
2023-02-28T12:42:05.505Z,151412.28
2023-02-28T12:43:10.904Z,151501.50
2023-02-28T12:44:23.025Z,151331.56
2023-02-28T12:45:33.253Z,150995.66
2023-02-28T12:46:42.554Z,150902.84
2023-02-28T12:47:49.784Z,150984.69
2023-02-28T12:48:57.706Z,150885.78
2023-02-28T12:50:07.551Z,150900.41
2023-02-28T12:51:11.289Z,150719.78